createdAt,value
2023-01-30T00:01:00.734Z,5.93
2023-01-30T00:03:29.417Z,6.33
2023-01-30T00:05:56.829Z,6.23
2023-01-30T00:08:24.086Z,6.23
2023-01-30T00:10:51.407Z,6.05
2023-01-30T00:13:18.661Z,5.91
2023-01-30T00:15:45.918Z,5.92
2023-01-30T00:18:13.200Z,5.87
2023-01-30T00:20:40.477Z,5.90
2023-01-30T00:23:07.713Z,5.99
2023-01-30T00:25:35.114Z,6.14
2023-01-30T00:28:02.502Z,6.01
2023-01-30T00:30:30.702Z,5.92
2023-01-30T00:32:59.341Z,6.15
2023-01-30T00:35:28.772Z,6.06
2023-01-30T00:37:57.916Z,6.25
2023-01-30T00:40:26.377Z,6.23
2023-01-30T00:43:13.232Z,6.17
2023-01-30T00:46:03.854Z,6.17
2023-01-30T00:48:32.034Z,6.01
2023-01-30T00:50:59.333Z,6.16
2023-01-30T00:53:27.759Z,6.27
2023-01-30T00:55:56.882Z,6.07
2023-01-30T00:58:24.787Z,6.01
2023-01-30T01:00:52.444Z,6.10
2023-01-30T01:03:20.198Z,6.28
2023-01-30T01:05:47.687Z,6.28
2023-01-30T01:08:15.891Z,6.27
2023-01-30T01:10:43.128Z,6.21
2023-01-30T01:13:10.682Z,6.14
2023-01-30T01:15:38.167Z,6.19
2023-01-30T01:18:06.288Z,5.86
2023-01-30T01:20:33.607Z,5.92
2023-01-30T01:23:00.947Z,6.04
2023-01-30T01:25:28.340Z,6.06
2023-01-30T01:27:55.844Z,5.92
2023-01-30T01:30:23.284Z,5.88
2023-01-30T01:32:50.605Z,5.99
2023-01-30T01:35:20.041Z,6.05
2023-01-30T01:37:47.581Z,6.24
2023-01-30T01:40:38.741Z,6.36
2023-01-30T01:43:22.201Z,6.07
2023-01-30T01:46:21.805Z,6.12
2023-01-30T01:48:52.570Z,5.98
2023-01-30T01:51:28.032Z,6.09
2023-01-30T01:54:02.021Z,6.12
2023-01-30T01:56:32.843Z,6.01
2023-01-30T01:59:09.095Z,6.24
2023-01-30T02:01:38.802Z,6.14
2023-01-30T02:04:10.135Z,5.99
2023-01-30T02:06:39.936Z,6.13
2023-01-30T02:09:09.188Z,6.03
2023-01-30T02:11:47.105Z,5.92
2023-01-30T02:14:14.962Z,6.12
2023-01-30T02:16:44.288Z,5.98
2023-01-30T02:19:39.955Z,5.90
2023-01-30T02:22:16.310Z,6.00
2023-01-30T02:24:44.097Z,5.98
2023-01-30T02:27:23.894Z,5.91
2023-01-30T02:30:26.749Z,5.79
2023-01-30T02:33:28.682Z,6.19
2023-01-30T02:36:09.674Z,6.13
2023-01-30T02:38:47.626Z,6.00
2023-01-30T02:41:42.834Z,5.90
2023-01-30T02:44:16.878Z,5.98
2023-01-30T02:46:54.260Z,6.18
2023-01-30T02:49:29.365Z,5.79
2023-01-30T02:51:58.033Z,6.03
2023-01-30T02:54:25.379Z,6.14
2023-01-30T02:56:58.581Z,6.04
2023-01-30T02:59:35.168Z,6.13
2023-01-30T03:02:17.768Z,6.05
2023-01-30T03:05:03.885Z,6.08
2023-01-30T03:07:50.024Z,6.08
2023-01-30T03:10:28.443Z,6.15
2023-01-30T03:13:07.250Z,5.89
2023-01-30T03:15:46.278Z,6.01
2023-01-30T03:18:13.916Z,5.98
2023-01-30T03:20:41.446Z,6.05
2023-01-30T03:23:09.016Z,6.04
2023-01-30T03:25:38.376Z,6.13
2023-01-30T03:28:06.151Z,6.10
2023-01-30T03:30:33.743Z,6.21
2023-01-30T03:33:08.166Z,5.94
2023-01-30T03:35:37.090Z,5.81
2023-01-30T03:38:04.780Z,6.07
2023-01-30T03:40:32.094Z,6.04
2023-01-30T03:42:59.712Z,6.08
2023-01-30T03:45:26.984Z,6.27
2023-01-30T03:47:54.341Z,6.41
2023-01-30T03:50:21.815Z,6.37
2023-01-30T03:52:49.124Z,6.34
2023-01-30T03:55:19.981Z,6.21
2023-01-30T03:57:47.727Z,6.21
2023-01-30T04:00:16.295Z,6.22
2023-01-30T04:02:43.703Z,6.18
2023-01-30T04:05:14.163Z,6.26
2023-01-30T04:07:46.400Z,6.18
2023-01-30T04:10:15.488Z,6.12
2023-01-30T04:12:43.065Z,6.14
2023-01-30T04:15:11.619Z,5.95
2023-01-30T04:17:59.034Z,6.14
2023-01-30T04:20:46.663Z,6.30
2023-01-30T04:23:15.922Z,6.30
2023-01-30T04:25:48.738Z,6.18
2023-01-30T04:28:18.827Z,6.08
2023-01-30T04:30:46.288Z,5.93
2023-01-30T04:33:36.979Z,5.85
2023-01-30T04:36:08.300Z,5.95
2023-01-30T04:38:36.320Z,6.07
2023-01-30T04:41:04.931Z,6.07
2023-01-30T04:43:34.784Z,6.09
2023-01-30T04:46:23.373Z,6.19
2023-01-30T04:48:50.645Z,6.07
2023-01-30T04:51:17.955Z,6.30
2023-01-30T04:53:45.494Z,6.23
2023-01-30T04:56:14.011Z,6.26
2023-01-30T04:58:42.379Z,6.14
2023-01-30T05:01:41.629Z,5.95
2023-01-30T05:04:09.235Z,5.86
2023-01-30T05:06:37.039Z,6.17
2023-01-30T05:09:04.716Z,6.14
2023-01-30T05:11:33.475Z,6.16
2023-01-30T05:14:00.840Z,6.05
2023-01-30T05:16:28.566Z,6.05
2023-01-30T05:18:55.916Z,6.04
2023-01-30T05:21:26.268Z,6.16
2023-01-30T05:23:54.616Z,6.11
2023-01-30T05:26:22.329Z,6.27
2023-01-30T05:28:54.446Z,6.24
2023-01-30T05:31:21.878Z,6.21
2023-01-30T05:34:00.822Z,6.12
2023-01-30T05:36:31.079Z,6.24
2023-01-30T05:39:07.912Z,6.31
2023-01-30T05:41:35.555Z,6.22
2023-01-30T05:44:02.770Z,6.29
2023-01-30T05:46:30.165Z,6.15
2023-01-30T05:48:57.614Z,6.20
2023-01-30T05:51:26.141Z,6.46
2023-01-30T05:53:53.762Z,6.29
2023-01-30T05:56:21.586Z,6.38
2023-01-30T05:58:53.330Z,6.41
2023-01-30T06:01:20.987Z,6.11
2023-01-30T06:03:48.860Z,6.17
2023-01-30T06:06:16.369Z,6.29
2023-01-30T06:08:43.693Z,6.23
2023-01-30T06:11:13.675Z,6.24
2023-01-30T06:13:41.993Z,6.20
2023-01-30T06:16:11.940Z,6.42
2023-01-30T06:18:39.570Z,6.61
2023-01-30T06:21:07.237Z,6.49
2023-01-30T06:23:34.614Z,6.56
2023-01-30T06:26:03.699Z,6.63
2023-01-30T06:28:32.237Z,6.75
2023-01-30T06:30:59.671Z,6.63
2023-01-30T06:33:27.147Z,6.57
2023-01-30T06:35:54.840Z,6.70
2023-01-30T06:38:22.253Z,6.51
2023-01-30T06:40:50.600Z,6.45
2023-01-30T06:43:18.096Z,6.40
2023-01-30T06:45:45.688Z,6.47
2023-01-30T06:48:13.125Z,6.37
2023-01-30T06:50:40.440Z,6.37
2023-01-30T06:53:08.429Z,6.27
2023-01-30T06:55:36.398Z,6.46
2023-01-30T06:58:14.306Z,6.49
2023-01-30T07:00:42.588Z,6.21
2023-01-30T07:03:17.724Z,6.45
2023-01-30T07:05:49.739Z,6.58
2023-01-30T07:08:17.260Z,6.76
2023-01-30T07:10:45.026Z,6.69
2023-01-30T07:13:12.774Z,6.75
2023-01-30T07:15:40.111Z,6.58
2023-01-30T07:18:08.530Z,6.57
2023-01-30T07:20:35.998Z,6.54
2023-01-30T07:23:03.543Z,6.49
2023-01-30T07:25:30.843Z,6.49
2023-01-30T07:27:59.996Z,6.72
2023-01-30T07:30:28.476Z,6.92
2023-01-30T07:32:57.859Z,7.32
2023-01-30T07:35:27.153Z,7.37
2023-01-30T07:37:54.378Z,7.86
2023-01-30T07:40:22.079Z,8.03
2023-01-30T07:43:00.477Z,7.50
2023-01-30T07:45:44.957Z,7.43
2023-01-30T07:48:14.478Z,7.19
2023-01-30T07:50:42.210Z,7.07
2023-01-30T07:53:11.656Z,7.18
2023-01-30T07:55:38.915Z,7.14
2023-01-30T07:58:06.208Z,6.95
2023-01-30T08:00:34.339Z,6.72
2023-01-30T08:03:01.707Z,6.84
2023-01-30T08:05:29.117Z,6.92
2023-01-30T08:07:56.772Z,6.84
2023-01-30T08:10:24.115Z,7.17
2023-01-30T08:12:51.724Z,7.35
2023-01-30T08:15:20.649Z,7.34
2023-01-30T08:17:56.220Z,7.10
2023-01-30T08:20:24.270Z,7.20
2023-01-30T08:22:51.552Z,7.32
2023-01-30T08:25:19.199Z,7.12
2023-01-30T08:27:47.087Z,7.52
2023-01-30T08:30:14.581Z,7.44
2023-01-30T08:32:41.848Z,7.17
2023-01-30T08:35:09.905Z,7.12
2023-01-30T08:37:39.662Z,7.02
2023-01-30T08:40:08.208Z,7.16
2023-01-30T08:42:35.588Z,7.26
2023-01-30T08:45:03.111Z,7.13
2023-01-30T08:47:31.100Z,7.39
2023-01-30T08:49:58.439Z,7.14
2023-01-30T08:52:25.813Z,6.99
2023-01-30T08:54:53.403Z,7.40
2023-01-30T08:57:20.682Z,7.33
2023-01-30T08:59:48.384Z,7.22
2023-01-30T09:02:15.780Z,7.50
2023-01-30T09:04:43.022Z,7.43
2023-01-30T09:07:10.557Z,7.44
2023-01-30T09:09:37.981Z,7.38
2023-01-30T09:12:05.472Z,7.43
2023-01-30T09:14:32.883Z,7.35
2023-01-30T09:17:00.373Z,7.43
2023-01-30T09:19:28.693Z,7.58
2023-01-30T09:21:56.652Z,7.57
2023-01-30T09:24:27.881Z,7.60
2023-01-30T09:26:57.715Z,7.50
2023-01-30T09:29:28.613Z,7.44
2023-01-30T09:31:56.870Z,7.61
2023-01-30T09:34:28.852Z,7.91
2023-01-30T09:36:57.670Z,7.68
2023-01-30T09:39:24.980Z,7.72
2023-01-30T09:42:04.728Z,7.77
2023-01-30T09:44:41.327Z,7.85
2023-01-30T09:47:12.764Z,7.63
2023-01-30T09:49:48.936Z,7.54
2023-01-30T09:52:35.015Z,7.89
2023-01-30T09:55:22.109Z,7.74
2023-01-30T09:57:49.828Z,7.95
2023-01-30T10:00:26.937Z,7.99
2023-01-30T10:03:05.372Z,9.04
2023-01-30T10:05:46.530Z,14.47
2023-01-30T10:08:38.617Z,11.39
2023-01-30T10:11:31.059Z,9.17
2023-01-30T10:14:32.417Z,8.91
2023-01-30T10:17:21.644Z,8.57
2023-01-30T10:20:20.725Z,8.55
2023-01-30T10:23:05.202Z,8.20
2023-01-30T10:25:47.927Z,8.26
2023-01-30T10:28:30.686Z,8.52
2023-01-30T10:31:09.458Z,8.07
2023-01-30T10:33:44.987Z,8.29
2023-01-30T10:36:28.299Z,8.52
2023-01-30T10:38:57.309Z,8.82
2023-01-30T10:41:47.860Z,8.99
2023-01-30T10:44:18.491Z,8.78
2023-01-30T10:46:57.636Z,8.64
2023-01-30T10:49:44.279Z,8.86
2023-01-30T10:52:43.960Z,8.72
2023-01-30T10:55:36.270Z,8.78
2023-01-30T10:58:18.713Z,8.92
2023-01-30T11:00:46.517Z,8.58
2023-01-30T11:03:32.556Z,8.57
2023-01-30T11:06:06.679Z,8.82
2023-01-30T11:08:35.219Z,8.80
2023-01-30T11:11:25.269Z,8.84
2023-01-30T11:14:01.188Z,8.88
2023-01-30T11:16:28.450Z,8.87
2023-01-30T11:19:19.635Z,8.77
2023-01-30T11:21:51.935Z,9.15
2023-01-30T11:24:23.371Z,9.19
2023-01-30T11:26:52.739Z,8.93
2023-01-30T11:29:31.966Z,9.05
2023-01-30T11:32:11.941Z,9.03
2023-01-30T11:34:39.425Z,9.09
2023-01-30T11:37:25.956Z,8.69
2023-01-30T11:39:53.539Z,8.79
2023-01-30T11:42:25.427Z,8.60
2023-01-30T11:45:14.876Z,8.59
2023-01-30T11:48:05.782Z,8.78
2023-01-30T11:50:41.636Z,8.76
2023-01-30T11:53:29.668Z,8.72
2023-01-30T11:56:08.803Z,8.43
2023-01-30T11:58:39.988Z,8.39
2023-01-30T12:01:09.722Z,8.44
2023-01-30T12:03:47.843Z,8.54
2023-01-30T12:06:32.492Z,8.76
2023-01-30T12:08:59.899Z,8.71
2023-01-30T12:11:32.046Z,8.42
2023-01-30T12:14:13.248Z,8.61
2023-01-30T12:17:01.005Z,8.90
2023-01-30T12:19:38.238Z,9.02
2023-01-30T12:22:21.955Z,9.26
2023-01-30T12:25:11.071Z,9.35
2023-01-30T12:27:48.468Z,9.05
2023-01-30T12:30:24.587Z,9.16
2023-01-30T12:32:57.150Z,9.15
2023-01-30T12:35:32.144Z,9.18
2023-01-30T12:38:17.995Z,9.30
2023-01-30T12:41:19.783Z,9.03
2023-01-30T12:44:16.098Z,9.09
2023-01-30T12:46:46.541Z,9.32
2023-01-30T12:49:29.665Z,9.20
2023-01-30T12:52:41.597Z,9.24
2023-01-30T12:55:35.309Z,9.56
2023-01-30T12:58:13.082Z,9.20
2023-01-30T13:01:22.385Z,9.19
2023-01-30T13:04:15.203Z,8.95
2023-01-30T13:07:09.275Z,9.12
2023-01-30T13:09:45.360Z,9.64
2023-01-30T13:12:27.879Z,9.71
2023-01-30T13:14:55.116Z,9.44
2023-01-30T13:17:49.912Z,9.28
2023-01-30T13:20:28.772Z,9.51
2023-01-30T13:23:02.451Z,9.75
2023-01-30T13:25:41.292Z,9.85
2023-01-30T13:28:20.821Z,9.40
2023-01-30T13:30:49.984Z,9.55
2023-01-30T13:33:22.859Z,9.67
2023-01-30T13:35:54.699Z,9.87
2023-01-30T13:38:27.427Z,9.71
2023-01-30T13:40:57.546Z,9.69
2023-01-30T13:43:31.582Z,9.43
2023-01-30T13:46:01.929Z,9.58
2023-01-30T13:48:42.792Z,9.83
2023-01-30T13:51:31.813Z,9.96
2023-01-30T13:54:11.417Z,9.96
2023-01-30T13:56:54.695Z,10.02
2023-01-30T13:59:36.795Z,10.10
2023-01-30T14:02:04.389Z,9.72
2023-01-30T14:04:41.234Z,9.69
2023-01-30T14:07:34.079Z,9.55
2023-01-30T14:10:10.746Z,9.67
2023-01-30T14:12:49.922Z,9.84
2023-01-30T14:15:18.938Z,9.93
2023-01-30T14:18:00.299Z,10.03
2023-01-30T14:20:30.329Z,10.03
2023-01-30T14:23:01.769Z,10.08
2023-01-30T14:25:29.288Z,10.05
2023-01-30T14:27:59.666Z,10.09
2023-01-30T14:30:45.262Z,10.06
2023-01-30T14:33:21.664Z,9.96
2023-01-30T14:36:14.848Z,10.05
2023-01-30T14:38:44.487Z,9.92
2023-01-30T14:41:27.025Z,10.05
2023-01-30T14:43:54.698Z,10.02
2023-01-30T14:46:22.082Z,9.84
2023-01-30T14:49:01.049Z,9.98
2023-01-30T14:51:43.545Z,9.87
2023-01-30T14:54:14.584Z,9.93
2023-01-30T14:56:46.254Z,9.86
2023-01-30T14:59:16.751Z,9.89
2023-01-30T15:01:59.404Z,10.22
2023-01-30T15:04:54.900Z,10.30
2023-01-30T15:07:23.356Z,10.30
2023-01-30T15:09:57.348Z,10.32
2023-01-30T15:12:43.122Z,10.29
2023-01-30T15:15:19.801Z,10.42
2023-01-30T15:18:10.077Z,10.39
2023-01-30T15:21:15.191Z,10.18
2023-01-30T15:23:49.143Z,10.28
2023-01-30T15:26:35.472Z,10.61
2023-01-30T15:29:30.999Z,10.58
2023-01-30T15:32:03.472Z,10.51
2023-01-30T15:34:32.374Z,10.10
2023-01-30T15:37:00.107Z,10.18
2023-01-30T15:39:28.458Z,10.35
2023-01-30T15:42:04.896Z,9.99
2023-01-30T15:44:53.346Z,10.10
2023-01-30T15:47:48.247Z,10.07
2023-01-30T15:50:15.736Z,9.93
2023-01-30T15:52:48.269Z,9.80
2023-01-30T15:55:27.291Z,9.69
2023-01-30T15:58:04.738Z,9.65
2023-01-30T16:00:36.271Z,9.58
2023-01-30T16:03:05.571Z,9.82
2023-01-30T16:05:32.841Z,10.01
2023-01-30T16:08:10.821Z,9.75
2023-01-30T16:10:46.449Z,9.99
2023-01-30T16:13:13.762Z,10.12
2023-01-30T16:15:47.267Z,10.13
2023-01-30T16:18:33.116Z,10.13
2023-01-30T16:21:05.294Z,10.03
2023-01-30T16:23:38.353Z,10.23
2023-01-30T16:26:08.039Z,9.82
2023-01-30T16:28:35.493Z,9.79
2023-01-30T16:31:05.960Z,9.71
2023-01-30T16:33:37.033Z,9.86
2023-01-30T16:36:27.917Z,9.69
2023-01-30T16:38:55.849Z,9.63
2023-01-30T16:41:31.410Z,9.44
2023-01-30T16:44:17.563Z,9.75
2023-01-30T16:46:48.266Z,9.73
2023-01-30T16:49:22.220Z,9.58
2023-01-30T16:51:50.994Z,9.71
2023-01-30T16:54:24.512Z,10.06
2023-01-30T16:56:54.567Z,10.08
2023-01-30T16:59:29.880Z,9.98
2023-01-30T17:01:59.184Z,9.63
2023-01-30T17:04:29.801Z,9.79
2023-01-30T17:07:00.807Z,9.68
2023-01-30T17:09:33.491Z,9.67
2023-01-30T17:12:00.907Z,9.21
2023-01-30T17:14:31.469Z,9.38
2023-01-30T17:17:12.360Z,9.48
2023-01-30T17:19:39.743Z,9.45
2023-01-30T17:22:09.108Z,9.19
2023-01-30T17:24:36.601Z,9.22
2023-01-30T17:27:04.623Z,9.14
2023-01-30T17:29:42.357Z,8.97
2023-01-30T17:32:12.308Z,9.11
2023-01-30T17:34:41.226Z,8.87
2023-01-30T17:37:17.153Z,9.04
2023-01-30T17:39:44.758Z,9.22
2023-01-30T17:42:13.302Z,9.15
2023-01-30T17:44:41.127Z,8.93
2023-01-30T17:47:11.848Z,8.66
2023-01-30T17:49:40.066Z,8.80
2023-01-30T17:52:07.368Z,8.83
2023-01-30T17:54:34.740Z,8.80
2023-01-30T17:57:09.805Z,8.92
2023-01-30T17:59:37.122Z,8.98
2023-01-30T18:02:05.135Z,8.88
2023-01-30T18:04:32.463Z,8.87
2023-01-30T18:07:04.388Z,8.60
2023-01-30T18:09:32.463Z,8.72
2023-01-30T18:11:59.785Z,8.87
2023-01-30T18:14:27.156Z,8.77
2023-01-30T18:16:59.994Z,8.50
2023-01-30T18:19:31.628Z,8.51
2023-01-30T18:21:59.180Z,8.77
2023-01-30T18:24:37.827Z,8.81
2023-01-30T18:27:19.428Z,8.80
2023-01-30T18:29:46.773Z,8.74
2023-01-30T18:32:14.329Z,8.86
2023-01-30T18:34:41.980Z,8.86
2023-01-30T18:37:16.803Z,9.00
2023-01-30T18:39:47.734Z,8.89
2023-01-30T18:42:15.123Z,8.58
2023-01-30T18:44:42.476Z,8.46
2023-01-30T18:47:09.714Z,8.71
2023-01-30T18:49:37.076Z,8.61
2023-01-30T18:52:04.976Z,8.75
2023-01-30T18:54:32.579Z,8.21
2023-01-30T18:57:00.428Z,8.18
2023-01-30T18:59:27.800Z,8.39
2023-01-30T19:01:55.068Z,8.47
2023-01-30T19:04:23.818Z,8.84
2023-01-30T19:06:51.113Z,8.74
2023-01-30T19:09:19.126Z,8.53
2023-01-30T19:12:04.738Z,8.87
2023-01-30T19:14:32.067Z,8.90
2023-01-30T19:16:59.455Z,8.62
2023-01-30T19:19:27.265Z,8.97
2023-01-30T19:21:54.624Z,8.73
2023-01-30T19:24:22.339Z,8.74
2023-01-30T19:26:50.459Z,8.80
2023-01-30T19:29:18.372Z,8.68
2023-01-30T19:31:47.382Z,8.61
2023-01-30T19:34:15.175Z,8.58
2023-01-30T19:36:42.717Z,8.51
2023-01-30T19:39:10.252Z,8.26
2023-01-30T19:41:37.578Z,8.00
2023-01-30T19:44:06.802Z,8.00
2023-01-30T19:46:34.680Z,8.17
2023-01-30T19:49:03.467Z,8.19
2023-01-30T19:51:33.660Z,8.34
2023-01-30T19:54:04.913Z,8.31
2023-01-30T19:56:33.192Z,8.21
2023-01-30T19:59:01.171Z,8.06
2023-01-30T20:01:32.546Z,7.92
2023-01-30T20:04:01.776Z,8.06
2023-01-30T20:06:31.809Z,8.24
2023-01-30T20:09:01.642Z,8.27
2023-01-30T20:11:29.914Z,8.07
2023-01-30T20:13:58.491Z,8.39
2023-01-30T20:16:27.746Z,8.23
2023-01-30T20:19:00.606Z,8.04
2023-01-30T20:21:30.076Z,7.73
2023-01-30T20:23:58.293Z,7.90
2023-01-30T20:26:28.535Z,7.91
2023-01-30T20:28:56.763Z,7.86
2023-01-30T20:31:26.014Z,8.19
2023-01-30T20:33:55.796Z,8.22
2023-01-30T20:36:24.864Z,8.26
2023-01-30T20:38:53.642Z,8.13
2023-01-30T20:41:25.760Z,7.96
2023-01-30T20:43:57.880Z,7.47
2023-01-30T20:46:30.148Z,7.61
2023-01-30T20:48:59.145Z,7.79
2023-01-30T20:51:28.534Z,7.87
2023-01-30T20:53:58.791Z,7.59
2023-01-30T20:56:26.861Z,7.59
2023-01-30T20:58:54.157Z,7.66
2023-01-30T21:01:23.772Z,7.61
2023-01-30T21:03:53.188Z,7.61
2023-01-30T21:06:41.116Z,7.35
2023-01-30T21:09:17.603Z,7.65
2023-01-30T21:11:45.206Z,7.85
2023-01-30T21:14:12.751Z,7.84
2023-01-30T21:16:40.283Z,7.67
2023-01-30T21:19:11.146Z,7.79
2023-01-30T21:21:46.970Z,7.95
2023-01-30T21:24:15.177Z,7.94
2023-01-30T21:26:46.177Z,7.81
2023-01-30T21:29:15.581Z,7.87
2023-01-30T21:31:44.290Z,7.76
2023-01-30T21:34:12.453Z,7.82
2023-01-30T21:36:40.332Z,7.82
2023-01-30T21:39:26.321Z,7.77
2023-01-30T21:42:12.049Z,7.52
2023-01-30T21:44:41.088Z,7.74
2023-01-30T21:47:08.729Z,7.75
2023-01-30T21:49:37.001Z,7.70
2023-01-30T21:52:04.571Z,7.82
2023-01-30T21:54:31.933Z,7.48
2023-01-30T21:56:59.300Z,7.39
2023-01-30T21:59:26.687Z,7.52
2023-01-30T22:01:54.013Z,7.33
2023-01-30T22:04:21.459Z,6.84
2023-01-30T22:06:48.785Z,6.87
2023-01-30T22:09:16.190Z,7.21
2023-01-30T22:11:43.876Z,7.25
2023-01-30T22:14:14.923Z,7.24
2023-01-30T22:16:42.301Z,7.21
2023-01-30T22:19:09.978Z,7.05
2023-01-30T22:21:39.943Z,7.20
2023-01-30T22:24:08.866Z,7.09
2023-01-30T22:26:36.674Z,6.87
2023-01-30T22:29:05.144Z,7.00
2023-01-30T22:31:37.425Z,7.05
2023-01-30T22:34:05.008Z,6.80
2023-01-30T22:36:33.982Z,7.00
2023-01-30T22:39:02.214Z,6.90
2023-01-30T22:41:32.539Z,6.92
2023-01-30T22:44:00.184Z,7.01
2023-01-30T22:46:31.401Z,7.06
2023-01-30T22:49:00.195Z,7.10
2023-01-30T22:51:33.807Z,6.93
2023-01-30T22:54:09.988Z,6.95
2023-01-30T22:56:40.916Z,7.05
2023-01-30T22:59:08.948Z,7.00
2023-01-30T23:01:41.656Z,6.88
2023-01-30T23:04:18.636Z,6.69
2023-01-30T23:06:49.276Z,6.78
2023-01-30T23:09:25.529Z,6.71
2023-01-30T23:12:16.765Z,6.75
2023-01-30T23:14:45.010Z,6.84
2023-01-30T23:17:39.163Z,6.92
2023-01-30T23:20:12.805Z,6.78
2023-01-30T23:22:40.605Z,6.93
2023-01-30T23:25:09.122Z,6.66
2023-01-30T23:27:40.103Z,6.62
2023-01-30T23:30:11.539Z,6.69
2023-01-30T23:32:39.947Z,6.81
2023-01-30T23:35:10.406Z,6.94
2023-01-30T23:37:59.732Z,6.71
2023-01-30T23:40:27.590Z,6.50
2023-01-30T23:42:54.940Z,6.52
2023-01-30T23:45:25.586Z,6.77
2023-01-30T23:47:53.724Z,6.85
2023-01-30T23:50:29.477Z,6.62
2023-01-30T23:53:00.101Z,6.53
2023-01-30T23:55:27.529Z,6.49
2023-01-30T23:57:54.808Z,6.55
